Providence, Rhode Island
Traffic Map
Current Weather Conditions
Providence, Rhode Island
Broken Clouds
Broken Clouds
24°
Feels Like: 24°
Wind Chill: 24° Ceiling: 10000
Heat Index: 24° Visibility: 10mi
Dew Point: Wind: 17mph
Humidity: 24% Direction: 290° (WNW)
Pressure: 29.8in Gusts: 0mph
Raw Report DataKPVD 181951Z 29015KT 10SM BKN100 24/02 A2980 RMK AO2 SLP092 T02390022
Traffic Incident Summary
Active as of:
Severity:
Category:
InformationThere was an issue retrieving the traffic information for this location. Please try a different location or try again shortly.
Advertisements
Track Severe Weather on mobile